VKG1756 GCLP-ENVA
Flight info
| Callsign | VKG1756 |
|---|---|
| Flight time | N/A |
| Altitude | 38000 |
| Route | BIMBO DCT LIDRO DCT MANOX/M080F380 T13 OMOKO DCT GUNSO/N0453F380 DCT KURUM DCT ROTEV DCT BLACA DCT TRN DCT GOSAM DCT GRICE DCT PTH DCT ASNUD DCT BEREP DCT OTRAX DCT BASTU DCT NELSU |
| Aircraft | A339/H-SADE1E2E3GHIJ3J5M1P2RWXY/LB2D1 |
Departure
| Time | 2026-04-27 16:44 |
|---|---|
| Airport | Gran Canaria Airport (GCLP) |
Arrival
| Time | N/A |
|---|---|
| Airport | Trondheim Airport, Værnes (ENVA) |
| Time | Latitude | Longitude | Altitude | Speed | Heading |
|---|---|---|---|---|---|
| 2026-04-27 16:14 | 27.93449 | -15.38996 | 91 ft | 0 kts | 291° |
| 2026-04-27 16:32 | 27.93443 | -15.38981 | 91 ft | 3 kts | 291° |
| 2026-04-27 16:32 | 27.93437 | -15.38962 | 91 ft | 2 kts | 292° |
| 2026-04-27 16:33 | 27.93419 | -15.38931 | 90 ft | 3 kts | 345° |
| 2026-04-27 16:33 | 27.93400 | -15.38926 | 89 ft | 3 kts | 3° |
| 2026-04-27 16:33 | 27.93381 | -15.38927 | 90 ft | 3 kts | 14° |
| 2026-04-27 16:33 | 27.93364 | -15.38932 | 88 ft | 1 kts | 21° |
| 2026-04-27 16:34 | 27.93359 | -15.38934 | 89 ft | 0 kts | 21° |
| 2026-04-27 16:36 | 27.93360 | -15.38934 | 89 ft | 1 kts | 21° |
| 2026-04-27 16:36 | 27.93377 | -15.38926 | 88 ft | 4 kts | 22° |
| 2026-04-27 16:36 | 27.93402 | -15.38915 | 88 ft | 4 kts | 21° |
| 2026-04-27 16:36 | 27.93427 | -15.38896 | 89 ft | 5 kts | 42° |
| 2026-04-27 16:37 | 27.93432 | -15.38847 | 90 ft | 8 kts | 93° |
| 2026-04-27 16:37 | 27.93405 | -15.38777 | 86 ft | 10 kts | 128° |
| 2026-04-27 16:37 | 27.93344 | -15.38782 | 85 ft | 10 kts | 202° |
| 2026-04-27 16:37 | 27.93273 | -15.38816 | 83 ft | 12 kts | 203° |
| 2026-04-27 16:38 | 27.93190 | -15.38858 | 84 ft | 13 kts | 205° |
| 2026-04-27 16:38 | 27.93103 | -15.38897 | 87 ft | 13 kts | 201° |
| 2026-04-27 16:38 | 27.93024 | -15.38932 | 88 ft | 12 kts | 201° |
| 2026-04-27 16:38 | 27.92945 | -15.38967 | 88 ft | 12 kts | 202° |
| 2026-04-27 16:39 | 27.92872 | -15.39001 | 89 ft | 11 kts | 201° |
| 2026-04-27 16:39 | 27.92807 | -15.39029 | 93 ft | 9 kts | 201° |
| 2026-04-27 16:39 | 27.92751 | -15.39053 | 93 ft | 8 kts | 201° |
| 2026-04-27 16:39 | 27.92701 | -15.39075 | 96 ft | 7 kts | 201° |
| 2026-04-27 16:40 | 27.92649 | -15.39097 | 96 ft | 9 kts | 200° |
| 2026-04-27 16:40 | 27.92580 | -15.39127 | 99 ft | 13 kts | 201° |
| 2026-04-27 16:40 | 27.92493 | -15.39167 | 102 ft | 13 kts | 202° |
| 2026-04-27 16:40 | 27.92411 | -15.39202 | 104 ft | 12 kts | 200° |
| 2026-04-27 16:41 | 27.92337 | -15.39235 | 106 ft | 11 kts | 201° |
| 2026-04-27 16:41 | 27.92270 | -15.39264 | 107 ft | 10 kts | 201° |
| 2026-04-27 16:41 | 27.92202 | -15.39295 | 106 ft | 12 kts | 202° |
| 2026-04-27 16:41 | 27.92110 | -15.39311 | 101 ft | 15 kts | 176° |
| 2026-04-27 16:42 | 27.92012 | -15.39301 | 97 ft | 14 kts | 175° |
| 2026-04-27 16:42 | 27.91931 | -15.39293 | 97 ft | 12 kts | 173° |
| 2026-04-27 16:42 | 27.91908 | -15.39233 | 94 ft | 8 kts | 59° |
| 2026-04-27 16:42 | 27.91964 | -15.39198 | 91 ft | 10 kts | 26° |
| 2026-04-27 16:43 | 27.92039 | -15.39165 | 91 ft | 17 kts | 21° |
| 2026-04-27 16:43 | 27.92330 | -15.39039 | 88 ft | 79 kts | 21° |
| 2026-04-27 16:43 | 27.93024 | -15.38732 | 63 ft | 135 kts | 21° |
| 2026-04-27 16:43 | 27.94004 | -15.38311 | 395 ft | 152 kts | 20° |
| 2026-04-27 16:44 | 27.95016 | -15.37876 | 912 ft | 162 kts | 19° |
| 2026-04-27 16:44 | 27.96083 | -15.37455 | 1440 ft | 165 kts | 17° |
| 2026-04-27 16:44 | 27.97182 | -15.37040 | 1911 ft | 169 kts | 17° |
| 2026-04-27 16:44 | 27.98312 | -15.36567 | 2360 ft | 176 kts | 19° |
| 2026-04-27 16:45 | 27.99449 | -15.36052 | 2958 ft | 174 kts | 19° |
| 2026-04-27 16:45 | 28.00568 | -15.35521 | 3615 ft | 174 kts | 21° |
| 2026-04-27 16:45 | 28.01692 | -15.34972 | 4195 ft | 183 kts | 21° |
| 2026-04-27 16:45 | 28.02919 | -15.34370 | 4623 ft | 200 kts | 20° |
| 2026-04-27 16:46 | 28.04263 | -15.33766 | 4980 ft | 217 kts | 18° |
| 2026-04-27 16:46 | 28.05724 | -15.33161 | 5248 ft | 236 kts | 18° |
| 2026-04-27 16:46 | 28.07323 | -15.32520 | 5521 ft | 252 kts | 18° |
| 2026-04-27 16:46 | 28.09016 | -15.31821 | 5875 ft | 265 kts | 19° |
| 2026-04-27 16:47 | 28.10756 | -15.31067 | 6442 ft | 270 kts | 21° |
| 2026-04-27 16:47 | 28.12528 | -15.30287 | 6999 ft | 274 kts | 21° |
| 2026-04-27 16:47 | 28.14326 | -15.29530 | 7597 ft | 277 kts | 18° |
| 2026-04-27 16:47 | 28.16191 | -15.28912 | 8182 ft | 280 kts | 14° |
| 2026-04-27 16:48 | 28.18105 | -15.28392 | 8795 ft | 283 kts | 13° |
| 2026-04-27 16:48 | 28.20029 | -15.27864 | 9410 ft | 287 kts | 13° |
| 2026-04-27 16:48 | 28.21989 | -15.27315 | 9708 ft | 294 kts | 13° |
| 2026-04-27 16:49 | 28.26044 | -15.26385 | 10456 ft | 309 kts | 1° |
| 2026-04-27 16:49 | 28.28246 | -15.26531 | 10615 ft | 327 kts | 352° |
| 2026-04-27 16:49 | 28.30506 | -15.27010 | 10842 ft | 340 kts | 346° |
| 2026-04-27 16:49 | 28.32783 | -15.27763 | 11367 ft | 343 kts | 340° |
| 2026-04-27 16:50 | 28.35005 | -15.28765 | 11913 ft | 346 kts | 335° |
| 2026-04-27 16:50 | 28.37148 | -15.30039 | 12472 ft | 348 kts | 328° |
| 2026-04-27 16:50 | 28.39157 | -15.31581 | 13040 ft | 350 kts | 322° |
| 2026-04-27 16:50 | 28.41005 | -15.33386 | 13603 ft | 352 kts | 315° |
| 2026-04-27 16:51 | 28.42739 | -15.35377 | 14091 ft | 355 kts | 314° |
| 2026-04-27 16:51 | 28.44490 | -15.37376 | 14553 ft | 358 kts | 314° |
| 2026-04-27 16:51 | 28.46266 | -15.39390 | 15065 ft | 360 kts | 314° |
| 2026-04-27 16:51 | 28.48053 | -15.41409 | 15537 ft | 364 kts | 314° |
| 2026-04-27 16:52 | 28.49851 | -15.43452 | 16006 ft | 366 kts | 314° |
| 2026-04-27 16:52 | 28.51657 | -15.45509 | 16516 ft | 369 kts | 314° |
| 2026-04-27 16:52 | 28.53460 | -15.47551 | 16966 ft | 372 kts | 314° |
| 2026-04-27 16:52 | 28.55310 | -15.49636 | 17418 ft | 375 kts | 316° |
| 2026-04-27 16:53 | 28.57424 | -15.51397 | 17818 ft | 380 kts | 332° |
| 2026-04-27 16:53 | 28.59924 | -15.52406 | 18293 ft | 384 kts | 347° |
| 2026-04-27 16:53 | 28.62572 | -15.52852 | 18694 ft | 387 kts | 352° |
| 2026-04-27 16:53 | 28.65249 | -15.53256 | 19096 ft | 389 kts | 352° |
| 2026-04-27 16:54 | 28.67944 | -15.53684 | 19534 ft | 392 kts | 351° |
| 2026-04-27 16:54 | 28.70655 | -15.54138 | 19942 ft | 395 kts | 351° |
| 2026-04-27 16:54 | 28.73379 | -15.54608 | 20357 ft | 398 kts | 351° |
| 2026-04-27 16:54 | 28.76091 | -15.55080 | 20784 ft | 400 kts | 351° |
| 2026-04-27 16:55 | 28.78852 | -15.55563 | 21192 ft | 403 kts | 351° |
| 2026-04-27 16:55 | 28.81638 | -15.56049 | 21619 ft | 406 kts | 351° |
| 2026-04-27 16:55 | 28.84443 | -15.56539 | 22024 ft | 410 kts | 351° |
| 2026-04-27 16:55 | 28.87272 | -15.57033 | 22455 ft | 412 kts | 351° |
| 2026-04-27 16:56 | 28.90120 | -15.57530 | 22862 ft | 416 kts | 351° |
| 2026-04-27 16:56 | 28.92995 | -15.58032 | 23275 ft | 419 kts | 351° |
| 2026-04-27 16:56 | 28.95891 | -15.58538 | 23689 ft | 422 kts | 351° |
| 2026-04-27 16:56 | 28.98803 | -15.59047 | 24050 ft | 425 kts | 351° |
| 2026-04-27 16:57 | 29.01739 | -15.59561 | 24417 ft | 427 kts | 351° |
| 2026-04-27 16:57 | 29.04684 | -15.60076 | 24809 ft | 429 kts | 351° |
| 2026-04-27 16:57 | 29.07646 | -15.60595 | 25183 ft | 431 kts | 351° |
| 2026-04-27 16:57 | 29.10579 | -15.61109 | 25569 ft | 433 kts | 351° |
| 2026-04-27 16:58 | 29.13570 | -15.61634 | 25928 ft | 436 kts | 351° |
| 2026-04-27 16:58 | 29.16579 | -15.62162 | 26272 ft | 439 kts | 351° |
| 2026-04-27 16:58 | 29.19605 | -15.62694 | 26672 ft | 440 kts | 351° |
| 2026-04-27 16:58 | 29.22647 | -15.63228 | 27037 ft | 442 kts | 351° |
| 2026-04-27 16:59 | 29.25701 | -15.63765 | 27366 ft | 445 kts | 351° |
| 2026-04-27 16:59 | 29.28769 | -15.64305 | 27745 ft | 446 kts | 350° |
| 2026-04-27 16:59 | 29.31848 | -15.64847 | 28130 ft | 448 kts | 350° |
| 2026-04-27 16:59 | 29.34898 | -15.65385 | 28444 ft | 450 kts | 350° |
| 2026-04-27 17:00 | 29.39063 | -15.66127 | 28909 ft | 453 kts | 350° |
| 2026-04-27 17:00 | 29.44258 | -15.67061 | 29454 ft | 456 kts | 350° |
| 2026-04-27 17:00 | 29.47395 | -15.67625 | 29790 ft | 458 kts | 350° |
| 2026-04-27 17:01 | 29.50556 | -15.68193 | 30100 ft | 460 kts | 350° |
| 2026-04-27 17:01 | 29.53721 | -15.68762 | 30392 ft | 462 kts | 349° |
| 2026-04-27 17:01 | 29.56913 | -15.69336 | 30669 ft | 465 kts | 349° |
| 2026-04-27 17:01 | 29.60124 | -15.69913 | 30934 ft | 467 kts | 349° |
| 2026-04-27 17:02 | 29.63347 | -15.70491 | 31157 ft | 471 kts | 349° |
| 2026-04-27 17:02 | 29.66589 | -15.71072 | 31469 ft | 472 kts | 349° |
| 2026-04-27 17:02 | 29.69838 | -15.71658 | 31745 ft | 474 kts | 349° |
| 2026-04-27 17:02 | 29.73107 | -15.72249 | 32015 ft | 476 kts | 349° |
| 2026-04-27 17:03 | 29.76345 | -15.72833 | 32321 ft | 477 kts | 349° |
| 2026-04-27 17:03 | 29.79632 | -15.73426 | 32553 ft | 480 kts | 349° |
| 2026-04-27 17:03 | 29.82936 | -15.74024 | 32780 ft | 481 kts | 349° |
| 2026-04-27 17:03 | 29.86251 | -15.74624 | 32995 ft | 483 kts | 349° |
| 2026-04-27 17:04 | 29.89571 | -15.75221 | 33214 ft | 483 kts | 349° |
| 2026-04-27 17:04 | 29.92905 | -15.75824 | 33368 ft | 485 kts | 349° |
| 2026-04-27 17:04 | 29.96241 | -15.76430 | 33532 ft | 486 kts | 349° |
| 2026-04-27 17:04 | 29.99589 | -15.77037 | 33731 ft | 485 kts | 349° |
| 2026-04-27 17:05 | 30.02923 | -15.77642 | 33965 ft | 484 kts | 349° |
| 2026-04-27 17:05 | 30.06248 | -15.78247 | 34146 ft | 484 kts | 349° |
| 2026-04-27 17:05 | 30.09582 | -15.78852 | 34315 ft | 484 kts | 349° |
| 2026-04-27 17:05 | 30.11784 | -15.79252 | 34429 ft | 483 kts | 349° |
| 2026-04-27 17:06 | 30.16225 | -15.80060 | 34685 ft | 482 kts | 349° |
| 2026-04-27 17:06 | 30.19499 | -15.80657 | 34840 ft | 482 kts | 349° |
| 2026-04-27 17:06 | 30.22812 | -15.81261 | 34993 ft | 482 kts | 349° |
| 2026-04-27 17:06 | 30.26126 | -15.81865 | 35163 ft | 482 kts | 349° |
| 2026-04-27 17:07 | 30.29438 | -15.82468 | 35357 ft | 480 kts | 349° |
| 2026-04-27 17:07 | 30.32739 | -15.83071 | 35514 ft | 480 kts | 349° |
| 2026-04-27 17:07 | 30.36051 | -15.83676 | 35653 ft | 481 kts | 349° |
| 2026-04-27 17:07 | 30.39360 | -15.84282 | 35803 ft | 480 kts | 349° |
| 2026-04-27 17:08 | 30.42616 | -15.84877 | 35988 ft | 479 kts | 348° |
| 2026-04-27 17:08 | 30.49153 | -15.86073 | 36070 ft | 468 kts | 348° |
| 2026-04-27 17:09 | 30.55546 | -15.87245 | 36072 ft | 466 kts | 348° |
| 2026-04-27 17:09 | 30.61984 | -15.88429 | 36073 ft | 467 kts | 348° |
| 2026-04-27 17:10 | 30.68398 | -15.89608 | 36072 ft | 466 kts | 348° |
| 2026-04-27 17:10 | 30.74802 | -15.90789 | 36073 ft | 466 kts | 348° |
| 2026-04-27 17:11 | 30.81167 | -15.91961 | 36082 ft | 466 kts | 348° |
| 2026-04-27 17:11 | 30.90765 | -15.93732 | 36084 ft | 465 kts | 348° |